Airfield :
LOGIN :

Register | Disclaimer

   EN    FR    IT 

 










Legend :    VFR   Marginal VFR   IFR   Intensive IFR   Very Intensive IFR
Visi :
Ceiling :
>= 8 km
>= 3000ft
5 to 8 km
1000 to 3000 ft
1500m to 5 km
500 to 1000 ft
800 to 1500m
200 to 500 ft
< 800m
< 200 ft
Symbols :   Thunderstorms  Fog  Heavy snow  Heavy precipitations  Wind > 20 kt
SIGMETs :     Misc.  Thunderstorms  Icing  Turbulence  Mountain Waves  Volcanic Ashes







- Airport Elevation : 277 ft
- IATA code : JER
- Download approach charts


EGJJ - Jersey

CURRENT METAR :
  • 221750Z 29008KT CAVOK 20/16 Q1018

EXPIRED METARs :
  • 221720Z 29009KT 260V320 9999 FEW018 20/16 Q1018
  • 221650Z 28009KT 9999 FEW020 20/15 Q1018
  • 221620Z 28009KT 250V310 9999 FEW020 21/15 Q1018
  • 221550Z 28008KT 250V320 9999 FEW020 21/15 Q1018
  • 221520Z 29008KT 250V320 9999 FEW020 21/15 Q1018

TAF TAF EGJJ
Valid from the 22 at 18:00 until the 23 at 03:00 UTC


221658Z 2218/2303 27008KT 9999 FEW020
PROB30
TEMPO 2221/2303 8000 BKN004
ATIS : +44 1534 498 073
No reported NOTAMs for that airfield.



MET'MAP, your aeronautical weather chart ! - Copyright ORBIFLY December 2007 - Disclaimer

ORBIFLY MET'MAP TEAM :

Programming & Development : Alexandra Zaïnal
Concept & Development : Baudouin d'Aumeries
Co-Development & Prog : Marc-Olivier Méhu
Technical & hardware support : Manuel Goepfert

Contact : metmap@orbifly.com




SOURCES & CREDITS :

   NOAA